createdAt,value
2022-10-29T00:02:24.623Z,53.92
2022-10-29T00:04:51.379Z,54.47
2022-10-29T00:07:17.979Z,57.72
2022-10-29T00:09:44.609Z,59.95
2022-10-29T00:12:11.130Z,57.08
2022-10-29T00:17:03.669Z,56.10
2022-10-29T00:19:30.355Z,60.25
2022-10-29T00:21:56.858Z,60.40
2022-10-29T00:24:23.439Z,59.00
2022-10-29T00:26:50.413Z,54.90
2022-10-29T00:29:17.285Z,53.05
2022-10-29T00:31:43.881Z,61.78
2022-10-29T00:34:10.486Z,54.58
2022-10-29T00:36:36.971Z,64.78
2022-10-29T00:39:03.722Z,60.65
2022-10-29T00:41:30.453Z,56.35
2022-10-29T00:46:32.010Z,64.50
2022-10-29T00:48:59.099Z,55.42
2022-10-29T00:51:26.960Z,56.13
2022-10-29T00:54:01.850Z,56.78
2022-10-29T00:56:32.434Z,61.33
2022-10-29T00:58:59.371Z,56.10
2022-10-29T01:01:26.222Z,59.55
2022-10-29T01:03:54.199Z,59.50
2022-10-29T01:06:22.691Z,55.63
2022-10-29T01:08:49.253Z,55.67
2022-10-29T01:11:24.463Z,54.58
2022-10-29T01:14:16.128Z,60.83
2022-10-29T01:16:55.969Z,51.53
2022-10-29T01:20:00.347Z,50.15
2022-10-29T01:22:35.083Z,51.80
2022-10-29T01:25:16.615Z,48.10
2022-10-29T01:27:49.506Z,52.08
2022-10-29T01:30:27.535Z,52.53
2022-10-29T01:33:09.243Z,51.35
2022-10-29T01:36:19.268Z,51.53
2022-10-29T01:39:07.962Z,49.30
2022-10-29T01:42:02.442Z,48.08
2022-10-29T01:44:54.158Z,42.13
2022-10-29T01:47:24.317Z,42.45
2022-10-29T01:49:54.995Z,39.13
2022-10-29T01:52:29.523Z,48.00
2022-10-29T01:54:56.135Z,49.63
2022-10-29T01:57:28.298Z,51.47
2022-10-29T02:00:01.542Z,47.72
2022-10-29T02:02:53.432Z,43.40
2022-10-29T02:05:38.213Z,37.92
2022-10-29T02:08:19.302Z,42.03
2022-10-29T02:10:53.564Z,39.78
2022-10-29T02:13:27.029Z,38.58
2022-10-29T02:15:56.779Z,41.30
2022-10-29T02:18:23.450Z,42.60
2022-10-29T02:20:50.068Z,45.47
2022-10-29T02:23:17.498Z,43.20
2022-10-29T02:25:44.376Z,41.25
2022-10-29T02:28:11.042Z,43.92
2022-10-29T02:30:37.671Z,37.65
2022-10-29T02:33:04.197Z,43.53
2022-10-29T02:35:30.751Z,40.40
2022-10-29T02:37:57.338Z,45.30
2022-10-29T02:40:23.939Z,40.55
2022-10-29T02:42:50.435Z,37.60
2022-10-29T02:45:17.337Z,35.85
2022-10-29T02:47:43.843Z,43.08
2022-10-29T02:50:10.455Z,38.50
2022-10-29T02:52:36.985Z,43.22
2022-10-29T02:55:03.719Z,49.83
2022-10-29T02:57:30.212Z,33.95
2022-10-29T02:59:56.903Z,44.90
2022-10-29T03:02:23.476Z,38.03
2022-10-29T03:04:50.135Z,43.35
2022-10-29T03:07:16.662Z,34.63
2022-10-29T03:09:43.197Z,33.65
2022-10-29T03:14:37.530Z,31.45
2022-10-29T03:17:04.123Z,36.38
2022-10-29T03:19:30.617Z,35.08
2022-10-29T03:21:57.211Z,36.22
2022-10-29T03:24:23.728Z,32.60
2022-10-29T03:29:05.818Z,33.80
2022-10-29T03:31:32.443Z,33.35
2022-10-29T03:33:58.979Z,28.60
2022-10-29T03:36:25.746Z,31.27
2022-10-29T03:38:52.282Z,40.42
2022-10-29T03:41:18.790Z,32.50
2022-10-29T03:43:45.370Z,30.85
2022-10-29T03:46:11.991Z,31.42
2022-10-29T03:48:38.505Z,32.22
2022-10-29T03:51:06.669Z,30.88
2022-10-29T03:53:34.811Z,32.70
2022-10-29T03:56:02.136Z,32.38
2022-10-29T03:58:29.009Z,30.90
2022-10-29T04:00:55.547Z,31.50
2022-10-29T04:03:22.147Z,30.88
2022-10-29T04:05:48.980Z,32.47
2022-10-29T04:08:15.482Z,36.90
2022-10-29T04:10:46.873Z,35.38
2022-10-29T04:13:14.523Z,39.80
2022-10-29T04:15:41.483Z,38.47
2022-10-29T04:18:08.899Z,41.80
2022-10-29T04:21:50.889Z,35.80
2022-10-29T04:28:58.942Z,38.78
2022-10-29T04:31:25.515Z,35.75
2022-10-29T04:33:55.246Z,31.40
2022-10-29T04:36:21.854Z,32.17
2022-10-29T04:38:50.147Z,31.13
2022-10-29T04:41:16.767Z,31.52
2022-10-29T04:43:43.365Z,31.10
2022-10-29T04:46:10.278Z,34.85
2022-10-29T04:48:37.266Z,37.97
2022-10-29T04:51:04.468Z,26.77
2022-10-29T04:53:31.302Z,31.70
2022-10-29T04:56:02.033Z,28.77
2022-10-29T04:58:28.554Z,31.67
2022-10-29T05:01:01.348Z,31.77
2022-10-29T05:03:28.013Z,28.85
2022-10-29T05:05:54.507Z,28.85
2022-10-29T05:08:21.553Z,31.75
2022-10-29T05:10:48.140Z,29.23
2022-10-29T05:13:14.944Z,30.00
2022-10-29T05:15:42.047Z,27.85
2022-10-29T05:18:10.285Z,28.02
2022-10-29T05:20:36.787Z,28.13
2022-10-29T05:23:05.877Z,24.35
2022-10-29T05:25:36.261Z,24.75
2022-10-29T05:28:14.397Z,26.70
2022-10-29T05:30:44.571Z,25.42
2022-10-29T05:33:14.274Z,26.98
2022-10-29T05:37:55.030Z,29.15
2022-10-29T05:40:22.801Z,25.10
2022-10-29T05:42:49.460Z,28.88
2022-10-29T05:45:17.003Z,30.80
2022-10-29T05:47:43.913Z,30.23
2022-10-29T05:50:11.381Z,33.22
2022-10-29T05:52:38.871Z,30.65
2022-10-29T05:57:30.418Z,33.67
2022-10-29T05:59:57.108Z,32.60
2022-10-29T06:02:23.920Z,20.75
2022-10-29T06:04:50.867Z,32.78
2022-10-29T06:07:17.430Z,23.73
2022-10-29T06:09:43.996Z,30.63
2022-10-29T06:12:10.490Z,29.85
2022-10-29T06:14:37.189Z,24.88
2022-10-29T06:17:03.736Z,29.48
2022-10-29T06:19:30.339Z,25.00
2022-10-29T06:22:00.301Z,27.95
2022-10-29T06:24:28.236Z,27.70
2022-10-29T06:26:54.801Z,24.30
2022-10-29T06:29:22.945Z,24.95
2022-10-29T06:31:49.487Z,21.95
2022-10-29T06:34:16.500Z,24.73
2022-10-29T06:36:43.195Z,26.85
2022-10-29T06:39:09.756Z,24.38
2022-10-29T06:41:36.261Z,23.85
2022-10-29T06:44:02.923Z,22.00
2022-10-29T06:46:29.435Z,25.10
2022-10-29T06:48:56.290Z,26.17
2022-10-29T06:51:25.987Z,29.70
2022-10-29T06:53:54.056Z,22.80
2022-10-29T06:56:22.050Z,23.25
2022-10-29T06:58:48.731Z,31.52
2022-10-29T07:01:15.306Z,23.73
2022-10-29T07:03:41.970Z,23.40
2022-10-29T07:08:24.148Z,28.58
2022-10-29T07:10:51.919Z,24.10
2022-10-29T07:13:18.549Z,24.40
2022-10-29T07:15:45.547Z,22.00
2022-10-29T07:18:12.335Z,26.85
2022-10-29T07:20:41.697Z,19.02
2022-10-29T07:23:09.147Z,20.35
2022-10-29T07:25:37.389Z,25.73
2022-10-29T07:28:05.321Z,28.67
2022-10-29T07:30:32.716Z,20.73
2022-10-29T07:32:59.246Z,23.08
2022-10-29T07:35:25.803Z,22.08
2022-10-29T07:37:52.358Z,13.93
2022-10-29T07:40:19.029Z,20.40
2022-10-29T07:42:51.747Z,25.95
2022-10-29T07:45:18.324Z,17.02
2022-10-29T07:47:44.847Z,22.83
2022-10-29T07:50:12.703Z,23.83
2022-10-29T07:52:40.320Z,22.65
2022-10-29T07:55:08.416Z,18.80
2022-10-29T07:57:34.989Z,20.17
2022-10-29T08:00:01.854Z,22.25
2022-10-29T08:02:39.383Z,21.65
2022-10-29T08:05:06.213Z,19.35
2022-10-29T08:09:49.571Z,24.73
2022-10-29T08:12:16.317Z,18.38
2022-10-29T08:14:42.890Z,21.25
2022-10-29T08:17:09.594Z,20.65
2022-10-29T08:19:36.111Z,18.02
2022-10-29T08:22:02.740Z,14.98
2022-10-29T08:24:29.226Z,22.38
2022-10-29T08:26:55.820Z,14.68
2022-10-29T08:29:22.325Z,16.42
2022-10-29T08:31:48.886Z,11.60
2022-10-29T08:34:15.640Z,12.30
2022-10-29T08:36:42.315Z,10.75
2022-10-29T08:39:08.839Z,11.25
2022-10-29T08:42:15.924Z,10.95
2022-10-29T08:44:50.990Z,12.68
2022-10-29T08:47:23.411Z,12.43
2022-10-29T08:50:06.044Z,10.60
2022-10-29T08:52:48.212Z,7.35
2022-10-29T08:55:32.564Z,9.05
2022-10-29T08:58:34.173Z,14.77
2022-10-29T09:01:00.932Z,6.70
2022-10-29T09:03:29.664Z,6.97
2022-10-29T09:06:15.087Z,9.98
2022-10-29T09:11:01.207Z,9.43
2022-10-29T09:13:47.929Z,9.15
2022-10-29T09:16:26.822Z,11.27
2022-10-29T09:19:38.320Z,12.20
2022-10-29T09:22:15.362Z,11.95
2022-10-29T09:25:23.667Z,8.75
2022-10-29T09:28:52.941Z,12.23
2022-10-29T09:31:42.306Z,11.05
2022-10-29T09:34:25.819Z,7.75
2022-10-29T09:36:52.623Z,10.55
2022-10-29T09:39:35.439Z,13.23
2022-10-29T09:42:08.475Z,9.73
2022-10-29T09:44:46.563Z,10.63
2022-10-29T09:47:22.559Z,15.20
2022-10-29T09:50:05.458Z,13.07
2022-10-29T09:52:41.451Z,6.88
2022-10-29T09:55:15.938Z,6.20
2022-10-29T09:57:43.844Z,8.68
2022-10-29T10:00:28.472Z,10.98
2022-10-29T10:03:05.029Z,15.15
2022-10-29T10:05:34.791Z,7.57
2022-10-29T10:08:08.215Z,8.38
2022-10-29T10:10:50.833Z,9.50
2022-10-29T10:13:18.983Z,12.48
2022-10-29T10:15:53.124Z,10.93
2022-10-29T10:18:23.526Z,12.75
2022-10-29T10:21:13.939Z,11.10
2022-10-29T10:23:54.418Z,9.65
2022-10-29T10:26:39.879Z,10.57
2022-10-29T10:29:09.168Z,14.88
2022-10-29T10:31:35.735Z,13.82
2022-10-29T10:34:10.281Z,9.48
2022-10-29T10:36:42.631Z,9.80
2022-10-29T10:39:26.831Z,6.95
2022-10-29T10:41:55.450Z,8.88
2022-10-29T10:44:23.120Z,8.43
2022-10-29T10:46:52.525Z,8.30
2022-10-29T10:49:32.960Z,13.60
2022-10-29T10:52:02.887Z,8.90
2022-10-29T10:54:38.280Z,19.40
2022-10-29T10:57:10.939Z,15.70
2022-10-29T10:59:43.225Z,15.82
2022-10-29T11:02:29.691Z,15.48
2022-10-29T11:05:05.340Z,11.38
2022-10-29T11:07:39.160Z,14.95
2022-10-29T11:10:12.109Z,12.50
2022-10-29T11:12:54.430Z,14.50
2022-10-29T11:15:29.695Z,10.50
2022-10-29T11:18:04.693Z,11.23
2022-10-29T11:20:40.183Z,11.48
2022-10-29T11:23:24.962Z,13.48
2022-10-29T11:26:00.662Z,14.80
2022-10-29T11:28:40.001Z,10.13
2022-10-29T11:31:32.214Z,11.65
2022-10-29T11:34:22.425Z,12.32
2022-10-29T11:37:22.583Z,13.77
2022-10-29T11:39:57.690Z,15.10
2022-10-29T11:42:25.281Z,13.18
2022-10-29T11:44:52.274Z,11.73
2022-10-29T11:47:45.127Z,10.88
2022-10-29T11:50:26.903Z,11.98
2022-10-29T11:53:09.098Z,12.13
2022-10-29T11:55:43.203Z,12.85
2022-10-29T11:58:19.075Z,13.25
2022-10-29T12:00:48.236Z,10.30
2022-10-29T12:03:30.324Z,14.43
2022-10-29T12:06:12.213Z,12.20
2022-10-29T12:08:57.555Z,10.55
2022-10-29T12:11:24.112Z,16.00
2022-10-29T12:14:27.323Z,22.13
2022-10-29T12:17:13.667Z,11.32
2022-10-29T12:22:40.915Z,35.13
2022-10-29T12:25:16.342Z,40.55
2022-10-29T12:28:06.910Z,16.95
2022-10-29T12:30:47.769Z,11.65
2022-10-29T12:33:42.351Z,20.13
2022-10-29T12:36:25.239Z,14.82
2022-10-29T12:38:57.222Z,49.78
2022-10-29T12:41:30.046Z,51.28
2022-10-29T12:44:09.380Z,20.15
2022-10-29T12:46:43.584Z,18.17
2022-10-29T12:49:48.339Z,19.20
2022-10-29T12:52:41.344Z,15.80
2022-10-29T12:55:12.653Z,14.77
2022-10-29T12:57:39.633Z,15.48
2022-10-29T13:00:24.495Z,11.85
2022-10-29T13:02:52.582Z,11.60
2022-10-29T13:05:36.344Z,9.63
2022-10-29T13:08:02.879Z,12.05
2022-10-29T13:10:35.094Z,12.65
2022-10-29T13:13:05.584Z,20.38
2022-10-29T13:15:37.278Z,12.82
2022-10-29T13:18:26.347Z,15.43
2022-10-29T13:20:54.646Z,12.98
2022-10-29T13:23:24.270Z,12.05
2022-10-29T13:25:55.752Z,16.23
2022-10-29T13:28:22.283Z,15.68
2022-10-29T13:30:49.920Z,19.05
2022-10-29T13:33:28.771Z,11.65
2022-10-29T13:36:02.656Z,21.38
2022-10-29T13:39:04.710Z,26.65
2022-10-29T13:41:39.783Z,10.88
2022-10-29T13:44:26.446Z,7.47
2022-10-29T13:47:02.380Z,15.95
2022-10-29T13:49:39.303Z,13.70
2022-10-29T13:52:08.619Z,14.63
2022-10-29T13:54:47.669Z,14.45
2022-10-29T13:57:14.184Z,47.30
2022-10-29T13:59:46.646Z,13.93
2022-10-29T14:02:22.773Z,13.25
2022-10-29T14:04:54.674Z,8.23
2022-10-29T14:07:28.642Z,12.05
2022-10-29T14:10:01.018Z,17.42
2022-10-29T14:12:31.010Z,8.07
2022-10-29T14:15:11.595Z,10.60
2022-10-29T14:17:39.783Z,13.57
2022-10-29T14:20:26.611Z,17.25
2022-10-29T14:22:53.822Z,13.68
2022-10-29T14:25:25.778Z,9.20
2022-10-29T14:30:41.802Z,4.90
2022-10-29T14:33:21.618Z,8.05
2022-10-29T14:35:48.777Z,6.55
2022-10-29T14:38:16.539Z,9.07
2022-10-29T14:40:45.567Z,11.02
2022-10-29T14:43:22.976Z,11.13
2022-10-29T14:45:49.846Z,6.68
2022-10-29T14:48:18.555Z,8.38
2022-10-29T14:50:47.825Z,7.03
2022-10-29T14:53:34.479Z,7.82
2022-10-29T14:56:09.385Z,15.65
2022-10-29T14:58:37.748Z,16.13
2022-10-29T15:01:09.093Z,14.68
2022-10-29T15:03:36.195Z,10.98
2022-10-29T15:06:21.295Z,16.10
2022-10-29T15:08:59.768Z,11.82
2022-10-29T15:11:49.057Z,10.32
2022-10-29T15:14:30.820Z,9.77
2022-10-29T15:16:58.761Z,10.98
2022-10-29T15:21:50.000Z,13.32
2022-10-29T15:24:21.069Z,17.83
2022-10-29T15:26:54.735Z,19.40
2022-10-29T15:29:34.198Z,21.63
2022-10-29T15:32:02.925Z,19.90
2022-10-29T15:34:35.970Z,18.15
2022-10-29T15:37:33.101Z,13.68
2022-10-29T15:39:59.678Z,13.25
2022-10-29T15:42:34.922Z,17.08
2022-10-29T15:45:07.509Z,14.73
2022-10-29T15:47:35.627Z,19.15
2022-10-29T15:50:02.806Z,14.20
2022-10-29T15:53:07.163Z,13.93
2022-10-29T15:55:38.426Z,81.28
2022-10-29T15:58:11.333Z,22.95
2022-10-29T16:00:38.244Z,25.98
2022-10-29T16:03:15.379Z,26.95
2022-10-29T16:05:44.526Z,39.35
2022-10-29T16:08:24.623Z,33.30
2022-10-29T16:10:52.138Z,24.27
2022-10-29T16:13:19.558Z,25.75
2022-10-29T16:15:46.447Z,28.33
2022-10-29T16:18:14.159Z,25.58
2022-10-29T16:20:40.735Z,26.85
2022-10-29T16:23:11.294Z,26.38
2022-10-29T16:25:38.956Z,26.52
2022-10-29T16:28:06.226Z,25.58
2022-10-29T16:30:33.842Z,23.90
2022-10-29T16:33:01.714Z,36.75
2022-10-29T16:35:29.746Z,27.20
2022-10-29T16:37:58.199Z,32.20
2022-10-29T16:40:27.483Z,30.45
2022-10-29T16:42:57.538Z,34.42
2022-10-29T16:45:29.983Z,32.92
2022-10-29T16:47:58.100Z,37.22
2022-10-29T16:50:26.033Z,29.70
2022-10-29T16:53:00.128Z,32.17
2022-10-29T16:55:28.201Z,31.52
2022-10-29T16:57:55.345Z,31.55
2022-10-29T17:00:23.118Z,26.80
2022-10-29T17:02:49.633Z,24.17
2022-10-29T17:05:16.273Z,37.78
2022-10-29T17:07:42.812Z,38.92
2022-10-29T17:10:10.042Z,30.40
2022-10-29T17:12:36.915Z,33.45
2022-10-29T17:15:03.685Z,31.63
2022-10-29T17:17:31.014Z,36.22
2022-10-29T17:19:57.888Z,36.58
2022-10-29T17:22:24.819Z,33.78
2022-10-29T17:24:51.376Z,38.05
2022-10-29T17:27:17.941Z,34.40
2022-10-29T17:29:44.592Z,39.67
2022-10-29T17:32:11.115Z,32.45
2022-10-29T17:34:37.687Z,34.75
2022-10-29T17:37:04.297Z,39.30
2022-10-29T17:39:30.958Z,36.53
2022-10-29T17:41:57.571Z,36.30
2022-10-29T17:44:26.440Z,39.22
2022-10-29T17:46:53.732Z,47.28
2022-10-29T17:49:21.021Z,39.55
2022-10-29T17:51:47.829Z,46.13
2022-10-29T17:54:15.860Z,40.17
2022-10-29T17:58:56.740Z,42.80
2022-10-29T18:01:23.450Z,40.30
2022-10-29T18:03:50.093Z,39.50
2022-10-29T18:06:17.168Z,46.58
2022-10-29T18:08:43.867Z,46.20
2022-10-29T18:11:15.402Z,41.15
2022-10-29T18:13:43.802Z,41.58
2022-10-29T18:16:12.790Z,37.85
2022-10-29T18:18:54.389Z,38.88
2022-10-29T18:21:27.781Z,37.72
2022-10-29T18:23:54.341Z,51.60
2022-10-29T18:26:32.330Z,49.50
2022-10-29T18:29:01.017Z,43.22
2022-10-29T18:31:30.370Z,41.97
2022-10-29T18:33:58.524Z,47.72
2022-10-29T18:36:27.419Z,42.00
2022-10-29T18:38:56.206Z,44.95
2022-10-29T18:41:23.417Z,44.22
2022-10-29T18:43:50.769Z,47.67
2022-10-29T18:46:18.275Z,44.88
2022-10-29T18:48:48.781Z,47.85
2022-10-29T18:51:21.079Z,50.83
2022-10-29T18:53:47.628Z,46.30
2022-10-29T18:56:17.283Z,50.70
2022-10-29T18:58:44.229Z,46.15
2022-10-29T19:01:12.107Z,51.42
2022-10-29T19:03:39.431Z,47.03
2022-10-29T19:06:08.726Z,51.08
2022-10-29T19:08:40.699Z,48.60
2022-10-29T19:11:10.009Z,43.90
2022-10-29T19:13:36.912Z,53.58
2022-10-29T19:16:11.377Z,51.00
2022-10-29T19:18:39.748Z,47.42
2022-10-29T19:21:11.732Z,48.15
2022-10-29T19:26:10.755Z,46.25
2022-10-29T19:28:38.046Z,47.30
2022-10-29T19:31:06.958Z,51.53
2022-10-29T19:33:34.204Z,49.75
2022-10-29T19:36:01.660Z,52.28
2022-10-29T19:38:28.474Z,49.05
2022-10-29T19:40:58.743Z,44.90
2022-10-29T19:43:26.342Z,48.20
2022-10-29T19:45:53.259Z,50.78
2022-10-29T19:48:19.995Z,52.33
2022-10-29T19:50:53.825Z,45.35
2022-10-29T19:53:21.004Z,52.10
2022-10-29T19:55:50.321Z,43.60
2022-10-29T19:58:18.096Z,46.72
2022-10-29T20:00:44.895Z,47.63
2022-10-29T20:03:12.951Z,43.88
2022-10-29T20:05:40.746Z,42.55
2022-10-29T20:08:11.391Z,44.95
2022-10-29T20:10:41.491Z,57.75
2022-10-29T20:13:08.475Z,46.25
2022-10-29T20:15:35.052Z,50.20
2022-10-29T20:18:04.191Z,52.05
2022-10-29T20:20:30.728Z,54.25
2022-10-29T20:22:57.601Z,54.13
2022-10-29T20:25:24.499Z,73.43
2022-10-29T20:27:51.007Z,65.22
2022-10-29T20:30:17.883Z,63.28
2022-10-29T20:32:44.424Z,55.35
2022-10-29T20:35:10.960Z,64.28
2022-10-29T20:37:37.466Z,61.40
2022-10-29T20:40:05.077Z,67.30
2022-10-29T20:42:31.660Z,65.05
2022-10-29T20:44:58.199Z,60.50
2022-10-29T20:47:25.023Z,62.08
2022-10-29T20:49:51.979Z,57.20
2022-10-29T20:52:18.608Z,53.33
2022-10-29T20:54:45.440Z,55.95
2022-10-29T20:57:12.015Z,46.95
2022-10-29T20:59:38.606Z,48.75
2022-10-29T21:02:05.255Z,52.53
2022-10-29T21:04:31.843Z,45.75
2022-10-29T21:06:58.450Z,47.00
2022-10-29T21:09:25.069Z,47.70
2022-10-29T21:11:51.612Z,46.83
2022-10-29T21:14:18.152Z,45.65
2022-10-29T21:21:28.219Z,47.28
2022-10-29T21:23:56.555Z,45.35
2022-10-29T21:26:26.143Z,45.78
2022-10-29T21:28:53.661Z,42.92
2022-10-29T21:31:21.667Z,41.28
2022-10-29T21:33:52.203Z,42.13
2022-10-29T21:36:19.779Z,42.80
2022-10-29T21:38:46.304Z,38.88
2022-10-29T21:41:12.951Z,41.97
2022-10-29T21:43:39.798Z,48.08
2022-10-29T21:46:07.263Z,45.45
2022-10-29T21:48:33.912Z,49.15
2022-10-29T21:51:01.855Z,42.97
2022-10-29T21:53:29.063Z,45.35
2022-10-29T21:56:00.130Z,37.70
2022-10-29T21:58:27.569Z,36.23
2022-10-29T22:01:20.258Z,40.03
2022-10-29T22:03:47.644Z,43.33
2022-10-29T22:06:19.326Z,55.67
2022-10-29T22:08:47.449Z,46.80
2022-10-29T22:11:15.370Z,49.08
2022-10-29T22:13:42.022Z,45.90
2022-10-29T22:16:09.429Z,48.38
2022-10-29T22:18:37.662Z,51.22
2022-10-29T22:21:07.581Z,51.33
2022-10-29T22:23:34.759Z,55.70
2022-10-29T22:26:01.510Z,52.38
2022-10-29T22:28:28.797Z,52.17
2022-10-29T22:31:00.337Z,59.33
2022-10-29T22:33:27.519Z,53.60
2022-10-29T22:35:54.340Z,58.63
2022-10-29T22:38:21.096Z,60.88
2022-10-29T22:40:47.626Z,65.20
2022-10-29T22:43:16.022Z,61.72
2022-10-29T22:45:48.133Z,66.85
2022-10-29T22:48:14.690Z,70.32
2022-10-29T22:50:41.445Z,81.50
2022-10-29T22:53:08.007Z,71.65
2022-10-29T22:55:34.523Z,64.57
2022-10-29T22:58:01.071Z,63.67
2022-10-29T23:00:27.681Z,67.22
2022-10-29T23:02:54.303Z,68.43
2022-10-29T23:05:21.006Z,73.40
2022-10-29T23:07:47.605Z,71.50
2022-10-29T23:10:14.332Z,80.35
2022-10-29T23:12:40.839Z,69.35
2022-10-29T23:15:08.749Z,66.00
2022-10-29T23:17:35.302Z,69.95
2022-10-29T23:20:01.835Z,65.68
2022-10-29T23:22:28.435Z,64.90
2022-10-29T23:24:54.906Z,60.50
2022-10-29T23:27:21.479Z,62.20
2022-10-29T23:29:48.046Z,58.67
2022-10-29T23:32:14.591Z,59.67
2022-10-29T23:34:41.071Z,55.97
2022-10-29T23:37:09.904Z,51.55
2022-10-29T23:39:37.166Z,55.47
2022-10-29T23:42:03.959Z,58.92
2022-10-29T23:44:30.559Z,53.30
2022-10-29T23:46:57.139Z,52.00
2022-10-29T23:49:23.635Z,53.00
2022-10-29T23:51:50.287Z,57.00
2022-10-29T23:54:16.781Z,55.25
2022-10-29T23:56:43.380Z,57.65
2022-10-29T23:59:09.922Z,54.40
